Observations for NORMAN WESTHEIMER, OK (OUN)

KOUN 270315Z AUTO 15010KT 10SM CLR 25/15 A3007 RMK AO2  
KOUN 270255Z AUTO 14009KT 10SM CLR 26/15 A3005 RMK AO2  
KOUN 270235Z AUTO 14008KT 10SM CLR 26/14 A3005 RMK AO2  
KOUN 270215Z AUTO 13006KT 10SM CLR 26/13 A3004 RMK AO2  
KOUN 270155Z AUTO 13005KT 10SM CLR 27/13 A3004 RMK AO2  
KOUN 270135Z AUTO 12006KT 10SM CLR 27/13 A3004 RMK AO2  
KOUN 270115Z AUTO 12008KT 10SM CLR 27/13 A3003 RMK AO2  
KOUN 270055Z AUTO 11010KT 10SM CLR 28/13 A3003 RMK AO2  
KOUN 270035Z AUTO 15007KT 10SM CLR 28/13 A3003 RMK AO2  
KOUN 270015Z AUTO 15005KT 10SM CLR 29/13 A3003 RMK AO2  
KOUN 262355Z AUTO 15005KT 10SM CLR 29/13 A3004 RMK AO2  
KOUN 262335Z AUTO 12006KT 10SM CLR 29/13 A3004 RMK AO2  
KOUN 262315Z AUTO 11004KT 10SM CLR 30/13 A3004 RMK AO2  
KOUN 262255Z AUTO 13006KT 10SM CLR 30/13 A3004 RMK AO2  
KOUN 262235Z AUTO 13006KT 10SM CLR 30/14 A3005 RMK AO2  
KOUN 262215Z AUTO 22003KT 10SM CLR 30/14 A3006 RMK AO2  
KOUN 262155Z AUTO 10003KT 10SM CLR 30/13 A3007 RMK AO2  
KOUN 262135Z AUTO 18007KT 137V197 10SM CLR 30/14 A3008 RMK AO2  
KOUN 262115Z AUTO 26003KT 10SM CLR 29/14 A3009 RMK AO2  
KOUN 262055Z AUTO 19007KT 10SM CLR 30/14 A3010 RMK AO2  
KOUN 262035Z AUTO 00000KT 10SM CLR 29/13 A3010 RMK AO2  
KOUN 262015Z AUTO 11005KT 10SM CLR 29/13 A3011 RMK AO2  
KOUN 261955Z AUTO 19005KT 10SM CLR 28/13 A3012 RMK AO2  
KOUN 261935Z AUTO 17005KT 10SM CLR 28/14 A3013 RMK AO2  
KOUN 261915Z AUTO 10007KT 10SM CLR 28/14 A3013 RMK AO2  
KOUN 261855Z AUTO 21006KT 10SM CLR 28/15 A3014 RMK AO2  
KOUN 261835Z AUTO 16009KT 10SM CLR 28/15 A3015 RMK AO2  
KOUN 261815Z AUTO 18008KT 157V217 10SM CLR 27/16 A3016 RMK AO2  
KOUN 261755Z AUTO 00000KT 10SM SCT042 27/15 A3017 RMK AO2   
KOUN 261735Z AUTO 16005KT 10SM SCT040 27/16 A3018 RMK AO2   
KOUN 261715Z AUTO 16008KT 10SM SCT039 27/17 A3019 RMK AO2   
KOUN 261655Z AUTO 16008KT 10SM CLR 26/17 A3019 RMK AO2  
KOUN 261635Z AUTO 17008KT 10SM CLR 26/17 A3020 RMK AO2  
KOUN 261615Z AUTO 19011KT 5SM HZ CLR 26/17 A3021 RMK AO2
KOUN 261555Z AUTO 17012KT 10SM CLR 25/16 A3022 RMK AO2  
KOUN 261535Z AUTO 16008KT 10SM CLR 25/16 A3022 RMK AO2  
KOUN 261515Z AUTO 17010KT 10SM CLR 25/16 A3022 RMK AO2  
KOUN 261455Z AUTO 17008KT 10SM CLR 24/16 A3022 RMK AO2  
KOUN 261435Z AUTO 17007KT 10SM CLR 23/16 A3022 RMK AO2  
KOUN 261415Z AUTO 18008KT 10SM CLR 23/16 A3022 RMK AO2  
KOUN 261355Z AUTO 17007KT 10SM CLR 22/16 A3022 RMK AO2  
KOUN 261335Z AUTO 17005KT 10SM CLR 22/16 A3021 RMK AO2  
KOUN 261315Z AUTO 17005KT 10SM CLR 21/16 A3020 RMK AO2  
KOUN 261255Z AUTO 16006KT 10SM CLR 20/16 A3020 RMK AO2  
KOUN 261235Z AUTO 17004KT 10SM CLR 20/15 A3020 RMK AO2  
KOUN 261215Z AUTO 16004KT 10SM SCT100 19/15 A3020 RMK AO2   
KOUN 261155Z AUTO 19003KT 10SM SCT110 18/15 A3020 RMK AO2   
KOUN 261135Z AUTO 00000KT 10SM OVC100 18/15 A3019 RMK AO2   
KOUN 261115Z AUTO 00000KT 10SM BKN100 18/15 A3019 RMK AO2   
KOUN 261055Z AUTO 00000KT 10SM OVC110 18/15 A3019 RMK AO2   
KOUN 261035Z AUTO 00000KT 10SM BKN100 18/14 A3019 RMK AO2   
KOUN 261015Z AUTO 00000KT 10SM BKN100 18/14 A3019 RMK AO2   
KOUN 260955Z AUTO 00000KT 10SM SCT100 21/14 A3019 RMK AO2   
KOUN 260935Z AUTO 00000KT 10SM SCT100 21/14 A3019 RMK AO2   
KOUN 260915Z AUTO 14004KT 10SM SCT100 21/13 A3018 RMK AO2   
KOUN 260855Z AUTO 15005KT 10SM SCT100 21/13 A3019 RMK AO2   
KOUN 260835Z AUTO 15005KT 10SM CLR 21/13 A3019 RMK AO2  
KOUN 260815Z AUTO 16005KT 10SM CLR 21/13 A3019 RMK AO2  
KOUN 260755Z AUTO 15005KT 10SM CLR 22/13 A3019 RMK AO2  
KOUN 260735Z AUTO 14005KT 10SM CLR 22/13 A3019 RMK AO2  
KOUN 260715Z AUTO 13005KT 10SM CLR 22/12 A3020 RMK AO2  
KOUN 260655Z AUTO 13004KT 10SM SCT110 22/12 A3020 RMK AO2   
KOUN 260635Z AUTO 13005KT 10SM BKN110 22/12 A3021 RMK AO2   
KOUN 260615Z AUTO 12005KT 10SM BKN120 22/12 A3020 RMK AO2   
KOUN 260555Z AUTO 11005KT 10SM SCT120 22/13 A3020 RMK AO2   
KOUN 260535Z AUTO 13005KT 10SM SCT120 22/12 A3021 RMK AO2   
KOUN 260515Z AUTO 12006KT 10SM CLR 22/12 A3020 RMK AO2  
KOUN 260455Z AUTO 11005KT 10SM CLR 22/12 A3019 RMK AO2  
KOUN 260435Z AUTO 08006KT 10SM CLR 22/11 A3019 RMK AO2  
KOUN 260415Z AUTO 14006KT 10SM CLR 24/11 A3019 RMK AO2  
KOUN 260355Z AUTO 14006KT 10SM CLR 25/10 A3019 RMK AO2  
KOUN 260335Z AUTO 14004KT 10SM CLR 24/10 A3018 RMK AO2  
KOUN 260315Z AUTO 15005KT 10SM CLR 25/10 A3017 RMK AO2  
KOUN 260255Z AUTO 13004KT 10SM CLR 25/11 A3017 RMK AO2  
KOUN 260235Z AUTO 14004KT 10SM CLR 25/10 A3017 RMK AO2